Terminal Aerodrome Forecast
Issued by NWS

Home | Current Version | Previous Version | Text Only | Print | Product List | Glossary Off
Versions: 1 2 3 4 5 6 7 8 9 10 11 12 13 14 15 16 17 18 19 20

000
FTUS41 KCLE 220400 AAA
TAFFDY
TAF AMD
KFDY 220410Z 2204/2224 23009KT P6SM -SHRA SCT045 OVC080
      TEMPO 2206/2208 5SM -SHRA BR BKN025
     FM220800 26012KT P6SM OVC014
     FM221100 30014KT P6SM OVC012
     FM221400 31014G24KT P6SM BKN025
     FM221700 31020G30KT P6SM SCT035=

USA.gov is the U.S. government's official web portal to all federal, state and local government web resources and services.